ADDS METAR Data

Data at: 0504 UTC 20 Apr 2018

METAR for:KEWB (New Bedford Rgnl, MA, US)
Text:KEWB 200453Z AUTO 29012KT 10SM BKN050 OVC095 04/00 A2985 RMK AO2 RAB31E33 SLP108 P0000 T00390000 400670006
Temperature: 3.9°C ( 39°F)
Dewpoint: 0.0°C ( 32°F) [RH = 76%]
Pressure (altimeter):29.85 inches Hg (1010.9 mb) [Sea level pressure: 1010.8 mb]
Winds:from the WNW (290 degrees) at 14 MPH (12 knots; 6.2 m/s)
Visibility:10 or more sm (16+ km)
Ceiling:5000 feet AGL
Clouds: broken clouds at 5000 feet AGL, overcast cloud deck at 9500 feet AGL
QC Flag:automated observation with no human augmentation